Time;durP1;ratioP1;P1;durP2;ratioP2;P2;SDS_P1;SDS_P2;PMS_P1;PMS_P2;Temp;Humidity;BMP_temperature;BMP_pressure;BME280_temperature;BME280_humidity;BME280_pressure;Samples;Min_cycle;Max_cycle;Signal;HPM_P1;HPM_P2
2022/05/29 00:01:41;;;;;;;;;2.00;2.00;;;;;12.97;50.39;101274.78;5037044;27;45544;-62
2022/05/29 00:04:06;;;;;;;;;2.00;2.00;;;;;12.96;50.77;101275.75;5015016;27;45763;-60
2022/05/29 00:06:39;;;;;;;;;1.00;1.00;;;;;12.92;50.99;101276.88;5013457;28;45428;-62
2022/05/29 00:09:06;;;;;;;;;1.00;1.00;;;;;12.92;50.34;101270.66;5014672;27;45531;-63
2022/05/29 00:11:31;;;;;;;;;3.00;3.00;;;;;12.91;50.57;101269.81;5014685;28;45554;-63
2022/05/29 00:14:00;;;;;;;;;1.33;1.33;;;;;12.80;50.99;101264.19;5030235;27;48277;-62
2022/05/29 00:16:27;;;;;;;;;1.00;1.00;;;;;12.63;51.32;101245.53;5032460;27;45498;-62
2022/05/29 00:18:53;;;;;;;;;0.67;0.67;;;;;12.75;50.75;101263.56;5040279;27;45316;-62
2022/05/29 00:21:18;;;;;;;;;6.33;2.00;;;;;12.70;51.12;101257.63;5034627;28;45340;-64
2022/05/29 00:23:44;;;;;;;;;2.00;2.00;;;;;12.69;51.87;101254.09;5057508;27;45535;-62
2022/05/29 00:26:10;;;;;;;;;3.00;1.33;;;;;12.60;51.83;101254.56;5092170;27;45475;-62
2022/05/29 00:28:35;;;;;;;;;3.00;1.00;;;;;12.63;51.06;101261.53;5044306;27;45393;-63
2022/05/29 00:31:01;;;;;;;;;1.00;1.00;;;;;12.63;51.47;101253.53;5014916;27;45498;-61
2022/05/29 00:33:27;;;;;;;;;3.00;1.00;;;;;12.58;51.96;101255.59;5062083;27;46103;-62
2022/05/29 00:35:53;;;;;;;;;1.00;1.00;;;;;12.52;51.57;101253.28;5033284;27;45462;-62
2022/05/29 00:38:18;;;;;;;;;1.33;1.33;;;;;12.50;52.18;101252.47;5034436;28;45286;-63
2022/05/29 00:41:20;;;;;;;;;2.00;2.00;;;;;12.50;52.30;101242.69;5033867;27;45552;-63
2022/05/29 00:44:26;;;;;;;;;1.67;1.67;;;;;12.39;52.35;101253.06;5034160;27;47095;-63
2022/05/29 00:46:57;;;;;;;;;0.67;0.67;;;;;12.36;51.86;101246.06;5034383;28;45526;-62
2022/05/29 00:49:29;;;;;;;;;3.00;1.00;;;;;12.46;51.69;101250.94;5032444;27;45570;-62
2022/05/29 00:52:08;;;;;;;;;2.00;2.00;;;;;12.50;52.21;101252.47;5040900;28;45531;-64
2022/05/29 00:54:43;;;;;;;;;5.33;1.00;;;;;12.42;52.09;101244.03;5021968;27;47145;-63
2022/05/29 00:57:19;;;;;;;;;0.00;0.00;;;;;12.31;52.26;101249.94;5046963;27;45346;-61
2022/05/29 00:59:46;;;;;;;;;2.67;1.00;;;;;12.26;52.56;101252.00;5098158;27;45229;-62
2022/05/29 01:02:12;;;;;;;;;3.67;2.00;;;;;12.22;53.00;101243.28;5033721;27;45838;-62
2022/05/29 01:04:39;;;;;;;;;2.00;2.00;;;;;12.19;53.01;101247.91;5032047;27;46531;-63
2022/05/29 01:07:08;;;;;;;;;2.00;2.00;;;;;12.10;53.56;101249.25;5033484;27;45330;-62
2022/05/29 01:09:35;;;;;;;;;3.67;3.00;;;;;12.05;53.75;101248.63;5051525;27;45530;-62
2022/05/29 01:12:13;;;;;;;;;4.33;4.33;;;;;11.95;53.98;101240.25;5053569;28;45632;-62
2022/05/29 01:14:38;;;;;;;;;5.00;4.67;;;;;12.02;53.82;101249.66;5019951;27;45388;-61
2022/05/29 01:17:21;;;;;;;;;3.00;2.00;;;;;12.00;54.18;101240.03;5012646;27;45674;-64
2022/05/29 01:20:06;;;;;;;;;7.33;3.67;;;;;11.87;54.41;101237.13;5013035;27;45477;-61
2022/05/29 01:22:56;;;;;;;;;4.00;3.00;;;;;11.94;54.14;101235.84;5031739;27;47152;-62
2022/05/29 01:25:36;;;;;;;;;3.00;3.00;;;;;11.97;54.17;101242.81;5032786;27;45506;-62
2022/05/29 01:28:10;;;;;;;;;4.00;3.00;;;;;11.90;54.84;101236.97;5038792;27;45589;-62
2022/05/29 01:30:54;;;;;;;;;3.00;3.00;;;;;11.81;55.33;101237.41;5053874;28;45295;-63
2022/05/29 01:33:30;;;;;;;;;2.00;2.00;;;;;11.76;54.56;101221.66;5025865;27;45282;-63
2022/05/29 01:36:37;;;;;;;;;5.33;2.00;;;;;11.85;54.79;101224.78;5034512;27;47244;-62
2022/05/29 01:39:23;;;;;;;;;2.00;2.00;;;;;11.76;55.51;101226.97;4994441;28;45413;-60
2022/05/29 01:42:19;;;;;;;;;3.75;2.00;;;;;11.77;55.46;101226.03;5013044;27;45379;-61
2022/05/29 01:44:54;;;;;;;;;3.33;1.33;;;;;11.69;55.66;101220.22;5037887;27;45587;-62
2022/05/29 01:47:24;;;;;;;;;1.00;1.00;;;;;11.67;55.89;101223.91;5013104;27;46352;-62
2022/05/29 01:50:04;;;;;;;;;1.00;1.00;;;;;11.67;55.72;101232.75;5014045;28;45715;-60
2022/05/29 01:52:47;;;;;;;;;2.00;2.00;;;;;11.67;56.13;101211.44;5018901;27;45435;-64
2022/05/29 01:55:50;;;;;;;;;1.67;1.33;;;;;11.66;55.84;101220.38;5046443;27;45396;-62
2022/05/29 01:58:21;;;;;;;;;3.00;1.67;;;;;11.69;56.02;101222.88;5023652;28;45537;-62
2022/05/29 02:00:50;;;;;;;;;1.67;1.67;;;;;11.61;56.62;101230.41;5016295;27;46054;-63
2022/05/29 02:03:21;;;;;;;;;2.00;2.00;;;;;11.57;56.42;101222.63;5046313;28;45325;-65
2022/05/29 02:05:52;;;;;;;;;1.00;1.00;;;;;11.58;56.70;101225.22;5037535;27;45164;-62
2022/05/29 02:08:24;;;;;;;;;1.00;1.00;;;;;11.45;58.09;101224.97;5013546;27;45421;-62
2022/05/29 02:10:53;;;;;;;;;1.50;1.00;;;;;11.45;57.32;101226.75;5029185;27;45579;-61
2022/05/29 02:13:24;;;;;;;;;2.25;2.25;;;;;11.42;57.37;101229.59;5033403;28;45580;-64
2022/05/29 02:15:57;;;;;;;;;2.00;1.50;;;;;11.43;57.72;101225.97;5043865;27;45411;-63
2022/05/29 02:18:44;;;;;;;;;2.00;1.00;;;;;11.47;57.41;101222.25;5021029;27;45636;-62
2022/05/29 02:21:35;;;;;;;;;0.00;0.00;;;;;11.43;57.54;101220.66;5015565;27;45404;-62
2022/05/29 02:24:05;;;;;;;;;0.75;0.75;;;;;11.38;57.58;101217.38;5013144;27;45529;-62
2022/05/29 02:26:37;;;;;;;;;2.00;1.50;;;;;11.35;58.77;101212.22;5016624;27;45325;-61
2022/05/29 02:29:11;;;;;;;;;0.00;0.00;;;;;11.26;58.31;101215.31;5026475;27;45335;-64
2022/05/29 02:32:14;;;;;;;;;1.00;1.00;;;;;11.22;58.81;101222.59;5058560;27;45826;-62
2022/05/29 02:35:03;;;;;;;;;3.25;1.00;;;;;11.18;58.82;101216.53;5034537;27;45363;-62
2022/05/29 02:37:55;;;;;;;;;2.00;2.00;;;;;11.10;59.16;101208.06;5042555;27;45271;-61
2022/05/29 02:40:29;;;;;;;;;2.00;2.00;;;;;11.09;58.55;101210.81;5032368;28;45636;-62
2022/05/29 02:43:12;;;;;;;;;5.67;2.00;;;;;11.05;60.04;101206.56;5017355;27;46052;-63
2022/05/29 02:46:09;;;;;;;;;1.00;1.00;;;;;11.01;59.66;101207.66;5013791;27;45458;-62
2022/05/29 02:48:40;;;;;;;;;2.00;2.00;;;;;10.97;59.63;101201.63;5011852;27;45540;-64
2022/05/29 02:51:12;;;;;;;;;2.00;2.00;;;;;10.94;59.86;101204.44;5023412;27;45267;-63
2022/05/29 02:53:43;;;;;;;;;2.50;1.50;;;;;10.97;60.19;101203.41;5029499;27;45518;-62
2022/05/29 02:56:09;;;;;;;;;2.00;2.00;;;;;10.92;59.46;101200.94;5046165;27;45462;-62
2022/05/29 02:58:37;;;;;;;;;1.75;1.75;;;;;10.93;60.08;101200.00;5018203;27;45673;-62
2022/05/29 03:01:43;;;;;;;;;2.00;2.00;;;;;10.86;60.33;101199.47;5031802;27;45270;-62
2022/05/29 03:04:36;;;;;;;;;2.75;1.00;;;;;10.88;59.68;101192.25;5031561;28;45376;-61
2022/05/29 03:07:13;;;;;;;;;2.00;2.00;;;;;10.90;59.95;101192.19;5031668;27;46150;-62
2022/05/29 03:09:41;;;;;;;;;1.00;1.00;;;;;10.89;59.33;101194.00;5035880;28;45313;-62
2022/05/29 03:12:17;;;;;;;;;3.00;2.00;;;;;10.95;59.43;101192.84;5045431;27;45617;-63
2022/05/29 03:15:10;;;;;;;;;2.00;2.00;;;;;11.01;59.18;101194.34;5038204;28;45464;-61
2022/05/29 03:17:43;;;;;;;;;3.00;1.50;;;;;10.97;59.47;101190.97;5033474;27;45506;-62
2022/05/29 03:20:27;;;;;;;;;2.00;2.00;;;;;11.01;59.46;101192.53;5015641;28;45416;-63
2022/05/29 03:23:09;;;;;;;;;1.00;1.00;;;;;11.02;59.79;101194.25;5014806;27;45545;-63
2022/05/29 03:25:41;;;;;;;;;4.75;2.25;;;;;10.99;59.94;101193.56;4997681;28;45425;-63
2022/05/29 03:28:45;;;;;;;;;4.50;2.00;;;;;10.96;59.50;101175.09;5032114;27;45410;-62
2022/05/29 03:31:18;;;;;;;;;3.25;2.75;;;;;10.96;59.66;101186.59;5002338;27;45731;-62
2022/05/29 03:33:47;;;;;;;;;1.00;1.00;;;;;10.96;59.94;101186.59;5053216;28;45438;-62
2022/05/29 03:36:15;;;;;;;;;1.50;1.00;;;;;10.80;60.74;101182.91;5036690;27;45604;-63
2022/05/29 03:38:42;;;;;;;;;2.00;1.00;;;;;10.69;61.48;101180.78;5035130;28;45481;-62
2022/05/29 03:41:32;;;;;;;;;2.00;2.00;;;;;10.57;61.63;101182.22;5026095;27;45237;-61
2022/05/29 03:43:58;;;;;;;;;2.50;1.50;;;;;10.57;61.41;101182.22;5015009;28;46896;-61
2022/05/29 03:46:23;;;;;;;;;1.00;1.00;;;;;10.55;60.86;101178.78;5029957;27;45514;-62
2022/05/29 03:48:48;;;;;;;;;3.25;2.00;;;;;10.55;61.97;101178.78;5037630;27;45473;-61
2022/05/29 03:51:14;;;;;;;;;4.50;2.50;;;;;10.48;61.84;101166.69;5027433;27;45320;-63
2022/05/29 03:53:39;;;;;;;;;5.75;2.00;;;;;10.51;61.55;101173.66;5015319;27;46337;-63
2022/05/29 03:56:05;;;;;;;;;1.50;1.50;;;;;10.51;61.27;101176.31;5016379;27;46182;-64
2022/05/29 03:58:31;;;;;;;;;3.25;2.00;;;;;10.48;61.63;101182.63;5033887;28;45418;-62
2022/05/29 04:00:56;;;;;;;;;4.00;1.00;;;;;10.48;62.26;101182.63;5027863;27;45488;-64
2022/05/29 04:03:22;;;;;;;;;3.25;2.00;;;;;10.41;62.57;101181.19;5034860;28;47149;-64
2022/05/29 04:05:47;;;;;;;;;3.00;1.00;;;;;10.36;62.61;101183.19;5032838;27;45365;-63
2022/05/29 04:13:43;;;;;;;;;3.00;1.00;;;;;10.25;62.33;101180.16;5033657;27;45470;-61
2022/05/29 04:16:10;;;;;;;;;2.00;2.00;;;;;10.34;62.19;101185.06;5034364;28;45272;-62
2022/05/29 04:18:37;;;;;;;;;2.50;1.00;;;;;10.33;61.92;101183.34;5033073;27;45349;-64
2022/05/29 04:21:03;;;;;;;;;6.00;3.00;;;;;10.38;62.15;101188.44;5034226;27;46004;-61
2022/05/29 04:23:28;;;;;;;;;1.50;1.50;;;;;10.39;62.04;101182.19;5033083;27;46289;-64
2022/05/29 04:25:54;;;;;;;;;3.00;3.00;;;;;10.36;63.04;101182.34;5025825;27;45596;-63
2022/05/29 04:28:21;;;;;;;;;1.25;1.25;;;;;10.35;62.45;101181.47;5118862;27;45452;-63
2022/05/29 04:30:47;;;;;;;;;1.25;1.25;;;;;10.34;63.59;101177.94;5034369;27;45420;-64
2022/05/29 04:33:12;;;;;;;;;2.00;2.00;;;;;10.28;63.86;101172.03;5045187;27;45390;-63
2022/05/29 04:35:41;;;;;;;;;2.25;2.25;;;;;10.29;63.53;101181.75;5043965;28;45334;-65
2022/05/29 04:38:07;;;;;;;;;3.50;2.00;;;;;10.26;63.62;101171.25;5035839;27;45427;-61
2022/05/29 04:40:35;;;;;;;;;2.75;2.75;;;;;10.32;62.43;101177.16;5033662;27;45520;-63
2022/05/29 04:43:00;;;;;;;;;2.00;2.00;;;;;10.36;62.46;101167.25;5017074;28;46403;-64
2022/05/29 04:45:27;;;;;;;;;1.00;1.00;;;;;10.36;62.93;101172.56;5014370;27;45598;-63
2022/05/29 04:47:53;;;;;;;;;2.50;2.00;;;;;10.37;62.65;101174.28;5014841;28;45491;-62
2022/05/29 04:50:19;;;;;;;;;3.50;3.50;;;;;10.44;61.86;101180.19;5013597;28;45338;-63
2022/05/29 04:52:44;;;;;;;;;7.00;7.00;;;;;10.44;62.46;101170.44;5032972;27;45187;-63
2022/05/29 04:55:10;;;;;;;;;2.00;1.00;;;;;10.45;61.92;101172.16;5034540;28;45260;-62
2022/05/29 04:57:36;;;;;;;;;2.25;2.00;;;;;10.39;63.15;101171.56;5023664;27;45541;-64
2022/05/29 05:00:03;;;;;;;;;3.75;2.00;;;;;10.39;62.52;101169.75;5014668;28;45623;-62
2022/05/29 05:02:29;;;;;;;;;1.25;1.00;;;;;10.34;62.65;101162.00;5031554;27;45519;-63
2022/05/29 05:04:54;;;;;;;;;4.75;2.50;;;;;10.40;62.73;101162.63;5028045;27;45945;-63
2022/05/29 05:07:19;;;;;;;;;6.00;3.00;;;;;10.43;62.50;101167.84;5016118;28;45973;-63
2022/05/29 05:09:45;;;;;;;;;1.50;1.50;;;;;10.38;63.45;101170.69;5023974;27;45531;-61
2022/05/29 05:12:11;;;;;;;;;3.50;2.75;;;;;10.42;62.36;101169.63;5032394;27;45402;-62
2022/05/29 05:14:36;;;;;;;;;2.00;2.00;;;;;10.44;62.49;101175.75;5015305;27;45523;-62
2022/05/29 05:17:02;;;;;;;;;5.75;2.00;;;;;10.48;62.99;101164.03;5034901;27;45495;-62
2022/05/29 05:19:27;;;;;;;;;2.00;2.00;;;;;10.58;62.39;101167.97;5013622;27;45283;-63
2022/05/29 05:21:53;;;;;;;;;3.00;2.00;;;;;10.57;62.64;101165.41;5028426;27;45290;-60
2022/05/29 05:24:19;;;;;;;;;4.00;2.00;;;;;10.60;62.14;101166.09;5040763;28;45278;-62
2022/05/29 05:26:45;;;;;;;;;2.25;2.25;;;;;10.68;62.04;101167.53;5047024;27;45321;-63
2022/05/29 05:29:11;;;;;;;;;3.75;3.75;;;;;10.66;61.83;101159.63;5034092;28;45574;-61
2022/05/29 05:31:37;;;;;;;;;5.50;3.00;;;;;10.73;61.95;101176.16;5033234;27;46237;-63
2022/05/29 05:34:02;;;;;;;;;2.00;2.00;;;;;10.73;60.98;101170.84;5021942;28;45456;-62
2022/05/29 05:36:28;;;;;;;;;1.50;1.00;;;;;10.80;61.53;101166.94;5032938;27;45365;-62
2022/05/29 05:38:53;;;;;;;;;5.50;2.25;;;;;10.82;61.81;101167.75;5033692;28;45631;-62
2022/05/29 05:41:20;;;;;;;;;3.50;2.00;;;;;10.77;61.71;101175.09;5028127;27;45453;-62
2022/05/29 05:43:49;;;;;;;;;3.00;3.00;;;;;10.78;61.45;101166.16;5032579;27;45411;-62
2022/05/29 05:46:15;;;;;;;;;4.75;3.50;;;;;10.82;61.23;101165.09;5032935;27;45300;-63
2022/05/29 05:48:41;;;;;;;;;2.25;2.00;;;;;10.86;61.52;101164.00;5032864;27;45514;-62
2022/05/29 05:51:08;;;;;;;;;1.50;1.50;;;;;10.84;62.15;101169.41;5033761;28;45308;-63
2022/05/29 05:53:37;;;;;;;;;2.75;2.00;;;;;10.87;61.24;101163.06;5024292;27;45826;-63
2022/05/29 05:56:08;;;;;;;;;2.50;1.75;;;;;10.96;60.50;101170.63;5024819;27;45263;-63
2022/05/29 05:58:34;;;;;;;;;3.25;3.00;;;;;11.01;60.67;101171.25;5029592;27;45638;-64
2022/05/29 06:01:07;;;;;;;;;3.25;2.00;;;;;11.08;60.99;101171.81;5031727;27;45982;-63
2022/05/29 06:03:32;;;;;;;;;3.00;3.00;;;;;11.14;60.31;101172.38;5022373;27;45421;-62
2022/05/29 06:05:58;;;;;;;;;1.00;1.00;;;;;11.25;59.31;101171.00;5032999;28;45639;-61
2022/05/29 06:08:24;;;;;;;;;1.75;1.75;;;;;11.26;59.60;101148.75;5032553;27;45417;-66
2022/05/29 06:10:50;;;;;;;;;1.25;1.00;;;;;11.35;59.39;101154.47;5031827;27;46238;-62
2022/05/29 06:13:16;;;;;;;;;2.75;2.75;;;;;11.39;59.32;101161.38;5031777;27;45392;-63
2022/05/29 06:15:46;;;;;;;;;2.25;2.25;;;;;11.44;59.22;101158.47;5031411;27;45775;-63
2022/05/29 06:18:13;;;;;;;;;3.00;1.00;;;;;11.42;58.87;101157.69;5022007;27;46704;-61
2022/05/29 06:20:39;;;;;;;;;1.75;1.75;;;;;11.41;58.88;101153.28;5012736;28;45556;-63
2022/05/29 06:23:04;;;;;;;;;1.00;1.00;;;;;11.48;59.11;101160.06;5025425;27;45526;-62
2022/05/29 06:25:30;;;;;;;;;2.00;2.00;;;;;11.56;58.79;101147.19;5031334;27;45262;-61
2022/05/29 06:27:55;;;;;;;;;5.50;1.75;;;;;11.60;58.88;101154.09;5030110;27;45711;-61
2022/05/29 06:30:21;;;;;;;;;3.25;2.00;;;;;11.65;57.99;101152.03;5031452;28;47610;-62
2022/05/29 06:32:47;;;;;;;;;1.50;1.50;;;;;11.71;58.45;101146.38;5082832;27;45456;-60
2022/05/29 06:35:14;;;;;;;;;2.25;1.75;;;;;11.74;57.88;101151.59;5025848;27;45237;-62
2022/05/29 06:37:40;;;;;;;;;2.00;2.00;;;;;11.72;58.37;101164.13;5051091;27;45168;-61
2022/05/29 06:40:07;;;;;;;;;3.00;2.25;;;;;11.69;58.31;101148.28;5031612;27;45698;-61
2022/05/29 06:42:33;;;;;;;;;2.00;1.00;;;;;11.73;58.19;101155.19;5032706;27;45598;-55
2022/05/29 06:44:59;;;;;;;;;3.00;2.25;;;;;11.78;57.46;101155.81;5029947;27;45485;-56
2022/05/29 06:47:25;;;;;;;;;1.00;1.00;;;;;11.87;57.53;101153.66;5036175;28;45453;-54
2022/05/29 06:49:50;;;;;;;;;5.50;3.00;;;;;11.94;57.64;101155.88;5036855;28;45438;-59
2022/05/29 06:52:17;;;;;;;;;3.00;2.00;;;;;12.05;57.04;101160.66;5034279;27;45312;-56
2022/05/29 06:54:43;;;;;;;;;0.67;0.67;;;;;12.07;56.61;101159.63;5027574;27;45508;-56
2022/05/29 06:57:10;;;;;;;;;2.00;0.00;;;;;12.16;56.66;101160.94;5026374;27;45443;-53
2022/05/29 07:07:55;;;;;;;;;2.00;1.00;;;;;12.25;55.71;101157.78;5033900;27;45317;-55
2022/05/29 07:10:21;;;;;;;;;3.00;3.00;;;;;12.33;55.68;101152.88;5031919;27;45863;-57
2022/05/29 07:12:48;;;;;;;;;1.00;1.00;;;;;12.39;54.78;101141.91;5033193;27;45379;-54
2022/05/29 07:15:16;;;;;;;;;2.00;2.00;;;;;12.46;54.14;101155.75;5032655;27;45351;-55
2022/05/29 07:17:41;;;;;;;;;1.67;1.67;;;;;12.52;53.83;101160.75;5070614;27;45440;-54
2022/05/29 07:20:08;;;;;;;;;4.00;2.00;;;;;12.62;53.23;101155.75;5035224;28;46259;-55
2022/05/29 07:22:34;;;;;;;;;2.33;1.00;;;;;12.67;53.22;101154.56;5054245;27;45585;-51
2022/05/29 07:25:01;;;;;;;;;0.00;0.00;;;;;12.74;52.08;101157.75;5033977;27;45453;-53
2022/05/29 07:27:27;;;;;;;;;2.00;1.00;;;;;12.82;52.21;101160.84;5037022;27;45515;-56
2022/05/29 07:29:55;;;;;;;;;2.00;2.00;;;;;12.84;52.13;101140.28;5038108;28;46518;-54
2022/05/29 07:32:21;;;;;;;;;1.00;0.33;;;;;12.82;50.26;101152.84;5043111;27;45219;-54
2022/05/29 07:34:46;;;;;;;;;0.67;0.67;;;;;12.91;50.63;101149.66;5035649;27;45372;-54
2022/05/29 07:37:15;;;;;;;;;1.00;1.00;;;;;13.05;50.52;101142.69;5018697;27;45173;-57
2022/05/29 07:39:46;;;;;;;;;1.00;1.00;;;;;13.10;50.14;101145.94;5026467;28;45483;-52
2022/05/29 07:44:56;;;;;;;;;2.00;0.00;;;;;13.28;49.24;101143.09;5014443;27;45222;-55
2022/05/29 07:47:27;;;;;;;;;1.00;1.00;;;;;13.45;49.81;101134.09;5101406;27;45512;-55
2022/05/29 07:49:53;;;;;;;;;1.00;1.00;;;;;13.56;48.82;101133.44;5015192;27;45221;-52
2022/05/29 07:52:20;;;;;;;;;1.00;1.00;;;;;13.54;47.19;101144.22;5029431;27;45352;-53
2022/05/29 07:54:45;;;;;;;;;2.00;1.00;;;;;13.41;47.72;101129.00;5053342;27;45505;-54
2022/05/29 07:57:11;;;;;;;;;1.00;1.00;;;;;13.40;48.49;101138.81;5055015;28;45287;-56
2022/05/29 07:59:37;;;;;;;;;0.00;0.00;;;;;13.49;48.99;101138.28;5028304;27;45510;-54
2022/05/29 08:02:03;;;;;;;;;1.00;1.00;;;;;13.57;48.93;101140.50;5025294;27;45457;-57
2022/05/29 08:04:28;;;;;;;;;2.00;2.00;;;;;13.69;49.24;101128.22;5022131;27;45475;-53
2022/05/29 08:06:54;;;;;;;;;0.67;0.00;;;;;13.95;48.75;101140.00;5018369;27;45562;-53
2022/05/29 08:09:19;;;;;;;;;2.00;0.00;;;;;13.97;47.96;101138.09;5023960;27;45481;-63
2022/05/29 08:11:45;;;;;;;;;2.00;1.00;;;;;14.02;46.60;101136.84;5039508;27;45451;-64
2022/05/29 08:14:10;;;;;;;;;2.67;1.00;;;;;13.89;46.27;101125.19;5033894;28;45452;-62
2022/05/29 08:16:36;;;;;;;;;2.00;1.00;;;;;13.91;45.88;101139.31;5032425;27;45665;-62
2022/05/29 08:19:03;;;;;;;;;0.00;0.00;;;;;14.08;45.99;101135.63;5061193;27;45542;-61
2022/05/29 08:21:29;;;;;;;;;1.00;1.00;;;;;14.24;45.35;101125.69;5029861;28;45497;-62
2022/05/29 08:32:07;;;;;;;;;3.00;1.00;;;;;14.42;45.81;101108.44;5031546;27;45993;-62
2022/05/29 08:34:33;;;;;;;;;1.00;1.00;;;;;14.93;45.52;101124.81;5031361;27;47062;-63
2022/05/29 08:36:58;;;;;;;;;2.00;2.00;;;;;15.55;43.68;101113.53;5034788;28;45554;-62
2022/05/29 08:39:24;;;;;;;;;1.00;1.00;;;;;15.90;42.34;101095.88;5032653;27;46772;-61
2022/05/29 08:41:53;;;;;;;;;1.00;1.00;;;;;16.20;41.23;101100.03;5037636;27;45510;-60
2022/05/29 08:44:49;;;;;;;;;1.00;1.00;;;;;16.62;41.18;101105.94;5030097;27;45606;-63
2022/05/29 08:47:24;;;;;;;;;1.00;1.00;;;;;16.46;41.54;101096.34;5037256;27;45428;-64
2022/05/29 08:49:50;;;;;;;;;1.00;1.00;;;;;16.27;41.80;101098.59;5034451;27;46191;-64
2022/05/29 08:52:46;;;;;;;;;1.00;1.00;;;;;16.04;41.01;101107.47;5018413;27;45415;-62
2022/05/29 08:55:13;;;;;;;;;2.00;2.00;;;;;16.23;41.90;101092.63;5029612;27;45330;-62
2022/05/29 08:57:54;;;;;;;;;1.00;1.00;;;;;16.55;41.52;101091.28;5014521;27;45230;-62
2022/05/29 09:00:50;;;;;;;;;4.00;1.00;;;;;17.02;40.00;101080.56;5029373;28;47703;-61
2022/05/29 09:03:29;;;;;;;;;1.00;1.00;;;;;17.32;39.59;101084.59;5025853;27;45471;-63
2022/05/29 09:06:05;;;;;;;;;4.00;2.00;;;;;17.49;40.22;101084.16;5014704;28;45380;-62
2022/05/29 09:08:37;;;;;;;;;1.00;1.00;;;;;17.59;38.84;101084.31;5014358;28;45332;-60
2022/05/29 09:11:16;;;;;;;;;2.00;2.00;;;;;17.80;38.93;101069.19;5013920;28;45383;-61
2022/05/29 09:14:01;;;;;;;;;2.00;1.00;;;;;18.12;38.25;101077.41;5012571;28;45229;-61
2022/05/29 09:16:32;;;;;;;;;0.00;0.00;;;;;18.37;36.71;101070.06;5012917;28;45292;-63
2022/05/29 09:19:08;;;;;;;;;1.00;1.00;;;;;18.52;35.55;101079.59;5014526;28;45468;-61
2022/05/29 09:21:54;;;;;;;;;0.00;0.00;;;;;18.31;35.88;101075.94;5019992;27;46175;-61
2022/05/29 09:24:33;;;;;;;;;0.00;0.00;;;;;18.02;36.27;101073.75;5053472;28;45228;-61
2022/05/29 09:26:59;;;;;;;;;0.00;0.00;;;;;17.79;35.49;101069.31;5055719;27;45270;-61
2022/05/29 09:29:24;;;;;;;;;0.00;0.00;;;;;17.54;35.76;101062.28;5125864;27;45582;-61
2022/05/29 09:31:50;;;;;;;;;1.00;1.00;;;;;17.56;36.63;101058.50;5103012;27;45333;-61
2022/05/29 09:34:15;;;;;;;;;1.00;1.00;;;;;17.65;34.72;101060.47;5033627;28;45354;-60
2022/05/29 09:36:44;;;;;;;;;0.00;0.00;;;;;17.51;35.57;101060.69;5033590;28;45308;-61
2022/05/29 09:39:43;;;;;;;;;2.00;0.33;;;;;17.46;36.87;101052.13;5031508;27;45379;-61
2022/05/29 09:42:24;;;;;;;;;1.00;1.00;;;;;17.49;36.72;101054.56;5029471;27;45377;-61
2022/05/29 09:45:05;;;;;;;;;1.00;1.00;;;;;17.54;36.84;101048.84;5033390;28;45675;-61
2022/05/29 09:50:19;;;;;;;;;2.00;1.00;;;;;17.68;37.07;101057.56;5033727;28;45330;-60
2022/05/29 09:52:45;;;;;;;;;1.00;1.00;;;;;17.77;37.59;101055.13;5033284;28;46097;-61
2022/05/29 09:55:26;;;;;;;;;1.00;1.00;;;;;17.90;36.97;101053.19;5031729;28;45839;-61
2022/05/29 09:58:06;;;;;;;;;2.33;2.33;;;;;17.89;37.66;101048.78;5032257;27;45439;-62
2022/05/29 10:01:03;;;;;;;;;1.00;1.00;;;;;17.82;37.34;101052.94;5053665;28;45352;-62
2022/05/29 10:03:53;;;;;;;;;0.00;0.00;;;;;17.53;37.16;101050.66;5054034;28;45516;-60
2022/05/29 10:06:22;;;;;;;;;1.67;1.00;;;;;17.55;37.77;101051.41;5053259;28;45440;-61
2022/05/29 10:08:49;;;;;;;;;1.00;1.00;;;;;17.47;37.72;101048.47;5053420;28;45341;-61
2022/05/29 10:11:26;;;;;;;;;0.00;0.00;;;;;17.46;37.13;101046.75;5053398;28;45375;-61
2022/05/29 10:13:52;;;;;;;;;1.67;1.00;;;;;17.56;37.77;101046.88;5052628;28;46212;-60
2022/05/29 10:16:35;;;;;;;;;1.00;1.00;;;;;17.59;37.52;101047.50;5035160;27;45431;-61
2022/05/29 10:19:02;;;;;;;;;1.67;1.00;;;;;17.62;37.69;101044.56;5053706;27;45384;-61
2022/05/29 10:21:41;;;;;;;;;2.00;0.67;;;;;17.54;36.70;101038.94;5049319;28;45480;-62
2022/05/29 10:24:37;;;;;;;;;0.67;0.67;;;;;17.74;37.78;101037.41;5020438;28;46951;-64
2022/05/29 10:27:26;;;;;;;;;4.67;3.33;;;;;18.09;36.40;101021.13;5033510;28;45484;-63
2022/05/29 10:29:56;;;;;;;;;1.33;0.00;;;;;17.97;35.19;101019.44;5020453;28;45414;-64
2022/05/29 10:32:28;;;;;;;;;1.00;1.00;;;;;18.11;34.55;101029.09;5075276;27;45314;-64
2022/05/29 10:35:15;;;;;;;;;1.00;1.00;;;;;18.02;34.57;101033.38;5041143;27;46199;-63
2022/05/29 10:37:43;;;;;;;;;0.33;0.33;;;;;17.92;34.41;101027.00;5031614;28;45529;-63
2022/05/29 10:40:14;;;;;;;;;1.00;1.00;;;;;17.94;34.99;101025.06;5031830;28;45441;-60
2022/05/29 10:42:47;;;;;;;;;1.00;1.00;;;;;17.92;34.62;101025.19;5031613;28;45597;-64
2022/05/29 10:45:18;;;;;;;;;1.00;1.00;;;;;17.90;34.71;101012.84;5032180;28;46327;-63
2022/05/29 10:48:01;;;;;;;;;1.67;1.00;;;;;17.91;34.23;101019.91;5031724;28;45521;-65
2022/05/29 10:50:42;;;;;;;;;0.67;0.67;;;;;17.83;35.39;101016.97;5015834;27;45255;-64
2022/05/29 10:53:38;;;;;;;;;1.00;1.00;;;;;17.76;35.21;101013.06;5042429;27;45465;-63
2022/05/29 10:56:12;;;;;;;;;1.00;1.00;;;;;17.87;35.96;101010.38;5031543;28;45295;-67
2022/05/29 10:58:42;;;;;;;;;1.00;1.00;;;;;18.02;35.22;100994.84;5031395;27;45954;-64
2022/05/29 11:04:19;;;;;;;;;0.00;0.00;;;;;18.08;33.84;100995.19;5015606;27;45353;-64
2022/05/29 11:07:22;;;;;;;;;2.00;2.00;;;;;17.96;34.99;100996.19;5013007;28;47521;-62
2022/05/29 11:09:56;;;;;;;;;2.00;2.00;;;;;17.96;35.67;100990.78;5032610;27;45336;-65
2022/05/29 11:12:50;;;;;;;;;2.00;2.00;;;;;17.90;35.69;100988.63;5024819;28;45477;-66
2022/05/29 11:15:33;;;;;;;;;3.00;1.00;;;;;17.77;35.36;100987.88;5032318;28;45625;-64
2022/05/29 11:18:36;;;;;;;;;2.00;1.00;;;;;17.72;35.81;100992.78;5014981;28;48294;-66
2022/05/29 11:21:17;;;;;;;;;1.67;1.67;;;;;17.74;35.54;100990.81;5046264;27;45389;-64
2022/05/29 11:23:51;;;;;;;;;3.00;1.00;;;;;17.77;35.79;100986.06;5030864;28;45482;-65
2022/05/29 11:26:42;;;;;;;;;1.00;1.00;;;;;17.84;35.89;100983.72;5028342;27;45551;-64
2022/05/29 11:29:29;;;;;;;;;3.00;2.00;;;;;17.61;35.10;100978.31;5025019;28;45463;-66
2022/05/29 11:31:57;;;;;;;;;2.00;2.00;;;;;17.47;34.41;100983.94;5040507;27;45562;-65
2022/05/29 11:35:20;;;;;;;;;2.67;1.00;;;;;17.60;35.26;100965.00;5033835;28;45462;-64
2022/05/29 11:38:19;;;;;;;;;1.00;1.00;;;;;17.96;33.68;100963.88;4999840;27;45765;-64
2022/05/29 11:41:12;;;;;;;;;1.00;1.00;;;;;18.19;33.53;100949.41;4992961;28;45527;-65
2022/05/29 11:43:59;;;;;;;;;2.00;1.00;;;;;18.79;33.08;100942.63;5014345;27;45358;-64
2022/05/29 11:52:33;;;;;;;;;1.00;1.00;;;;;19.08;31.99;100936.56;5033578;28;45463;-64
2022/05/29 11:55:21;;;;;;;;;1.33;1.33;;;;;19.06;31.35;100922.38;5016745;27;45690;-65
2022/05/29 11:57:50;;;;;;;;;1.00;1.00;;;;;19.03;31.13;100930.72;5019935;27;45252;-63
2022/05/29 12:00:24;;;;;;;;;1.67;1.67;;;;;18.87;32.01;100923.09;5029687;27;45481;-65
2022/05/29 12:03:04;;;;;;;;;3.00;3.00;;;;;18.75;32.31;100914.22;5025300;27;45502;-64
2022/05/29 12:05:42;;;;;;;;;2.33;2.33;;;;;18.90;32.34;100920.16;5035265;28;45321;-69
2022/05/29 12:08:24;;;;;;;;;1.33;1.33;;;;;19.31;32.30;100916.56;5021376;27;45493;-63
2022/05/29 12:11:05;;;;;;;;;1.33;1.33;;;;;19.69;31.78;100907.81;5032940;27;45241;-64
2022/05/29 12:13:36;;;;;;;;;1.67;1.67;;;;;20.11;30.85;100898.66;5035540;28;46318;-64
2022/05/29 12:16:12;;;;;;;;;2.00;2.00;;;;;20.03;30.16;100908.31;5020862;28;45538;-64
2022/05/29 12:18:48;;;;;;;;;2.00;2.00;;;;;19.79;31.06;100899.72;5014633;28;45380;-65
2022/05/29 12:21:27;;;;;;;;;3.00;1.33;;;;;19.56;30.77;100904.50;5031999;28;45683;-64
2022/05/29 12:23:54;;;;;;;;;1.67;1.00;;;;;19.20;31.61;100905.00;5043732;28;45351;-64
2022/05/29 12:26:27;;;;;;;;;1.00;1.00;;;;;19.19;31.74;100906.84;5034533;27;45754;-64
2022/05/29 12:29:06;;;;;;;;;1.67;1.67;;;;;19.08;32.24;100899.69;5034391;27;45439;-64